sensor_id;sensor_type;location;lat;lon;timestamp;P1;durP1;ratioP1;P2;durP2;ratioP2
6537;SDS011;3302;52.508;13.454;2023-01-28T00:01:07;6.13;;;3.40;;
6537;SDS011;3302;52.508;13.454;2023-01-28T00:03:34;6.63;;;3.47;;
6537;SDS011;3302;52.508;13.454;2023-01-28T00:06:01;7.17;;;2.80;;
6537;SDS011;3302;52.508;13.454;2023-01-28T00:08:32;6.70;;;3.10;;
6537;SDS011;3302;52.508;13.454;2023-01-28T00:11:01;6.90;;;3.00;;
6537;SDS011;3302;52.508;13.454;2023-01-28T00:13:29;6.43;;;2.80;;
6537;SDS011;3302;52.508;13.454;2023-01-28T00:16:00;5.23;;;2.97;;
6537;SDS011;3302;52.508;13.454;2023-01-28T00:18:29;4.63;;;2.80;;
6537;SDS011;3302;52.508;13.454;2023-01-28T00:20:59;5.67;;;2.93;;
6537;SDS011;3302;52.508;13.454;2023-01-28T00:23:31;5.53;;;3.30;;
6537;SDS011;3302;52.508;13.454;2023-01-28T00:25:59;7.33;;;3.10;;
6537;SDS011;3302;52.508;13.454;2023-01-28T00:28:26;7.33;;;3.37;;
6537;SDS011;3302;52.508;13.454;2023-01-28T00:30:51;5.07;;;3.10;;
6537;SDS011;3302;52.508;13.454;2023-01-28T00:33:17;5.93;;;3.37;;
6537;SDS011;3302;52.508;13.454;2023-01-28T00:35:43;7.60;;;3.70;;
6537;SDS011;3302;52.508;13.454;2023-01-28T00:38:09;5.13;;;3.40;;
6537;SDS011;3302;52.508;13.454;2023-01-28T00:40:35;6.50;;;3.43;;
6537;SDS011;3302;52.508;13.454;2023-01-28T00:43:01;6.17;;;3.23;;
6537;SDS011;3302;52.508;13.454;2023-01-28T00:45:27;8.40;;;4.00;;
6537;SDS011;3302;52.508;13.454;2023-01-28T00:47:52;7.27;;;3.70;;
6537;SDS011;3302;52.508;13.454;2023-01-28T00:50:18;6.00;;;3.63;;
6537;SDS011;3302;52.508;13.454;2023-01-28T00:52:46;6.43;;;4.37;;
6537;SDS011;3302;52.508;13.454;2023-01-28T00:55:12;6.70;;;3.67;;
6537;SDS011;3302;52.508;13.454;2023-01-28T00:57:38;8.13;;;4.03;;
6537;SDS011;3302;52.508;13.454;2023-01-28T01:00:04;5.80;;;3.20;;
6537;SDS011;3302;52.508;13.454;2023-01-28T01:02:31;6.63;;;3.23;;
6537;SDS011;3302;52.508;13.454;2023-01-28T01:04:57;5.87;;;3.47;;
6537;SDS011;3302;52.508;13.454;2023-01-28T01:07:23;6.30;;;3.03;;
6537;SDS011;3302;52.508;13.454;2023-01-28T01:10:00;6.53;;;3.40;;
6537;SDS011;3302;52.508;13.454;2023-01-28T01:12:27;6.43;;;3.20;;
6537;SDS011;3302;52.508;13.454;2023-01-28T01:14:52;6.77;;;2.87;;
6537;SDS011;3302;52.508;13.454;2023-01-28T01:17:18;7.63;;;3.77;;
6537;SDS011;3302;52.508;13.454;2023-01-28T01:19:45;7.23;;;3.60;;
6537;SDS011;3302;52.508;13.454;2023-01-28T01:22:11;5.30;;;3.37;;
6537;SDS011;3302;52.508;13.454;2023-01-28T01:24:36;9.33;;;3.50;;
6537;SDS011;3302;52.508;13.454;2023-01-28T01:27:02;5.97;;;3.13;;
6537;SDS011;3302;52.508;13.454;2023-01-28T01:29:30;5.73;;;3.20;;
6537;SDS011;3302;52.508;13.454;2023-01-28T01:31:58;6.10;;;3.30;;
6537;SDS011;3302;52.508;13.454;2023-01-28T01:34:24;6.43;;;3.57;;
6537;SDS011;3302;52.508;13.454;2023-01-28T01:36:50;6.43;;;3.50;;
6537;SDS011;3302;52.508;13.454;2023-01-28T01:39:16;9.53;;;3.77;;
6537;SDS011;3302;52.508;13.454;2023-01-28T01:41:42;5.67;;;3.40;;
6537;SDS011;3302;52.508;13.454;2023-01-28T01:47:18;7.73;;;4.03;;
6537;SDS011;3302;52.508;13.454;2023-01-28T01:49:56;7.73;;;3.37;;
6537;SDS011;3302;52.508;13.454;2023-01-28T01:52:25;6.17;;;2.73;;
6537;SDS011;3302;52.508;13.454;2023-01-28T01:54:55;4.57;;;2.67;;
6537;SDS011;3302;52.508;13.454;2023-01-28T01:57:27;7.57;;;2.93;;
6537;SDS011;3302;52.508;13.454;2023-01-28T01:59:56;5.13;;;2.77;;
6537;SDS011;3302;52.508;13.454;2023-01-28T02:02:34;5.80;;;3.13;;
6537;SDS011;3302;52.508;13.454;2023-01-28T02:05:03;6.27;;;3.07;;
6537;SDS011;3302;52.508;13.454;2023-01-28T02:07:31;7.03;;;3.27;;
6537;SDS011;3302;52.508;13.454;2023-01-28T02:09:57;3.50;;;2.30;;
6537;SDS011;3302;52.508;13.454;2023-01-28T02:12:24;5.63;;;2.90;;
6537;SDS011;3302;52.508;13.454;2023-01-28T02:15:00;5.87;;;3.00;;
6537;SDS011;3302;52.508;13.454;2023-01-28T02:17:41;5.50;;;2.80;;
6537;SDS011;3302;52.508;13.454;2023-01-28T02:20:09;8.63;;;2.97;;
6537;SDS011;3302;52.508;13.454;2023-01-28T02:31:14;4.23;;;2.70;;
6537;SDS011;3302;52.508;13.454;2023-01-28T02:36:32;4.63;;;2.90;;
6537;SDS011;3302;52.508;13.454;2023-01-28T02:39:07;4.80;;;2.90;;
6537;SDS011;3302;52.508;13.454;2023-01-28T02:41:38;5.70;;;2.50;;
6537;SDS011;3302;52.508;13.454;2023-01-28T02:44:07;5.47;;;2.67;;
6537;SDS011;3302;52.508;13.454;2023-01-28T02:46:34;6.87;;;3.30;;
6537;SDS011;3302;52.508;13.454;2023-01-28T02:54:55;6.70;;;3.20;;
6537;SDS011;3302;52.508;13.454;2023-01-28T03:00:00;5.00;;;3.17;;
6537;SDS011;3302;52.508;13.454;2023-01-28T03:02:50;4.57;;;2.47;;
6537;SDS011;3302;52.508;13.454;2023-01-28T03:05:28;5.57;;;3.03;;
6537;SDS011;3302;52.508;13.454;2023-01-28T03:08:04;4.23;;;2.43;;
6537;SDS011;3302;52.508;13.454;2023-01-28T03:10:52;4.83;;;2.60;;
6537;SDS011;3302;52.508;13.454;2023-01-28T03:13:39;5.03;;;2.40;;
6537;SDS011;3302;52.508;13.454;2023-01-28T03:16:24;5.07;;;2.70;;
6537;SDS011;3302;52.508;13.454;2023-01-28T03:19:09;5.30;;;2.30;;
6537;SDS011;3302;52.508;13.454;2023-01-28T03:21:55;5.50;;;2.80;;
6537;SDS011;3302;52.508;13.454;2023-01-28T03:24:42;5.27;;;2.53;;
6537;SDS011;3302;52.508;13.454;2023-01-28T03:27:33;3.70;;;2.27;;
6537;SDS011;3302;52.508;13.454;2023-01-28T03:30:44;4.47;;;2.23;;
6537;SDS011;3302;52.508;13.454;2023-01-28T03:33:34;3.70;;;2.20;;
6537;SDS011;3302;52.508;13.454;2023-01-28T03:36:19;4.13;;;2.30;;
6537;SDS011;3302;52.508;13.454;2023-01-28T03:39:03;3.70;;;2.10;;
6537;SDS011;3302;52.508;13.454;2023-01-28T03:41:29;6.13;;;2.37;;
6537;SDS011;3302;52.508;13.454;2023-01-28T03:43:55;5.90;;;2.30;;
6537;SDS011;3302;52.508;13.454;2023-01-28T03:46:21;3.60;;;2.20;;
6537;SDS011;3302;52.508;13.454;2023-01-28T03:48:47;3.37;;;2.37;;
6537;SDS011;3302;52.508;13.454;2023-01-28T03:51:13;6.20;;;2.07;;
6537;SDS011;3302;52.508;13.454;2023-01-28T03:53:39;3.40;;;2.30;;
6537;SDS011;3302;52.508;13.454;2023-01-28T03:56:05;4.60;;;2.20;;
6537;SDS011;3302;52.508;13.454;2023-01-28T03:58:32;5.10;;;2.30;;
6537;SDS011;3302;52.508;13.454;2023-01-28T04:01:10;3.73;;;2.33;;
6537;SDS011;3302;52.508;13.454;2023-01-28T04:03:37;4.73;;;1.90;;
6537;SDS011;3302;52.508;13.454;2023-01-28T04:06:04;2.80;;;1.93;;
6537;SDS011;3302;52.508;13.454;2023-01-28T04:08:32;4.00;;;2.20;;
6537;SDS011;3302;52.508;13.454;2023-01-28T04:10:57;3.07;;;2.00;;
6537;SDS011;3302;52.508;13.454;2023-01-28T04:13:42;3.27;;;2.10;;
6537;SDS011;3302;52.508;13.454;2023-01-28T04:16:09;4.97;;;2.23;;
6537;SDS011;3302;52.508;13.454;2023-01-28T04:18:36;3.27;;;2.13;;
6537;SDS011;3302;52.508;13.454;2023-01-28T04:21:01;2.80;;;2.00;;
6537;SDS011;3302;52.508;13.454;2023-01-28T04:23:27;4.83;;;2.40;;
6537;SDS011;3302;52.508;13.454;2023-01-28T04:25:54;3.13;;;1.90;;
6537;SDS011;3302;52.508;13.454;2023-01-28T04:28:20;3.93;;;2.20;;
6537;SDS011;3302;52.508;13.454;2023-01-28T04:30:45;3.53;;;2.07;;
6537;SDS011;3302;52.508;13.454;2023-01-28T04:33:11;3.80;;;2.13;;
6537;SDS011;3302;52.508;13.454;2023-01-28T04:35:37;4.10;;;1.93;;
6537;SDS011;3302;52.508;13.454;2023-01-28T04:38:03;3.17;;;1.97;;
6537;SDS011;3302;52.508;13.454;2023-01-28T04:40:29;5.30;;;2.00;;
6537;SDS011;3302;52.508;13.454;2023-01-28T04:42:55;3.07;;;1.60;;
6537;SDS011;3302;52.508;13.454;2023-01-28T04:45:22;3.27;;;1.90;;
6537;SDS011;3302;52.508;13.454;2023-01-28T04:47:47;3.80;;;1.90;;
6537;SDS011;3302;52.508;13.454;2023-01-28T04:50:14;3.40;;;2.03;;
6537;SDS011;3302;52.508;13.454;2023-01-28T04:52:40;4.37;;;2.20;;
6537;SDS011;3302;52.508;13.454;2023-01-28T04:55:06;4.20;;;2.10;;
6537;SDS011;3302;52.508;13.454;2023-01-28T04:57:32;3.07;;;1.73;;
6537;SDS011;3302;52.508;13.454;2023-01-28T04:59:58;2.77;;;1.83;;
6537;SDS011;3302;52.508;13.454;2023-01-28T05:02:24;3.17;;;1.60;;
6537;SDS011;3302;52.508;13.454;2023-01-28T05:04:49;2.70;;;1.63;;
6537;SDS011;3302;52.508;13.454;2023-01-28T05:07:15;3.23;;;1.73;;
6537;SDS011;3302;52.508;13.454;2023-01-28T05:09:41;2.80;;;1.60;;
6537;SDS011;3302;52.508;13.454;2023-01-28T05:12:07;3.10;;;1.63;;
6537;SDS011;3302;52.508;13.454;2023-01-28T05:14:32;4.20;;;1.70;;
6537;SDS011;3302;52.508;13.454;2023-01-28T05:16:58;3.20;;;1.60;;
6537;SDS011;3302;52.508;13.454;2023-01-28T05:19:24;4.53;;;1.70;;
6537;SDS011;3302;52.508;13.454;2023-01-28T05:21:50;3.80;;;2.00;;
6537;SDS011;3302;52.508;13.454;2023-01-28T05:24:16;3.27;;;1.50;;
6537;SDS011;3302;52.508;13.454;2023-01-28T05:26:41;5.63;;;2.17;;
6537;SDS011;3302;52.508;13.454;2023-01-28T05:29:07;3.27;;;1.80;;
6537;SDS011;3302;52.508;13.454;2023-01-28T05:31:33;4.13;;;2.20;;
6537;SDS011;3302;52.508;13.454;2023-01-28T05:33:59;5.43;;;2.47;;
6537;SDS011;3302;52.508;13.454;2023-01-28T05:36:24;2.77;;;2.03;;
6537;SDS011;3302;52.508;13.454;2023-01-28T05:38:50;4.00;;;2.37;;
6537;SDS011;3302;52.508;13.454;2023-01-28T05:41:16;4.10;;;2.30;;
6537;SDS011;3302;52.508;13.454;2023-01-28T05:43:42;2.83;;;2.23;;
6537;SDS011;3302;52.508;13.454;2023-01-28T05:46:07;4.33;;;2.20;;
6537;SDS011;3302;52.508;13.454;2023-01-28T05:48:33;2.93;;;2.20;;
6537;SDS011;3302;52.508;13.454;2023-01-28T05:50:59;6.00;;;4.33;;
6537;SDS011;3302;52.508;13.454;2023-01-28T05:53:26;4.57;;;3.47;;
6537;SDS011;3302;52.508;13.454;2023-01-28T05:55:52;5.50;;;3.00;;
6537;SDS011;3302;52.508;13.454;2023-01-28T05:58:18;6.50;;;3.93;;
6537;SDS011;3302;52.508;13.454;2023-01-28T06:00:45;6.77;;;3.53;;
6537;SDS011;3302;52.508;13.454;2023-01-28T06:03:11;6.07;;;4.00;;
6537;SDS011;3302;52.508;13.454;2023-01-28T06:05:36;6.70;;;4.50;;
6537;SDS011;3302;52.508;13.454;2023-01-28T06:08:02;6.33;;;4.20;;
6537;SDS011;3302;52.508;13.454;2023-01-28T06:10:28;6.87;;;4.40;;
6537;SDS011;3302;52.508;13.454;2023-01-28T06:12:55;8.30;;;4.73;;
6537;SDS011;3302;52.508;13.454;2023-01-28T06:15:21;6.10;;;4.33;;
6537;SDS011;3302;52.508;13.454;2023-01-28T06:17:47;8.37;;;4.80;;
6537;SDS011;3302;52.508;13.454;2023-01-28T06:20:12;7.53;;;4.60;;
6537;SDS011;3302;52.508;13.454;2023-01-28T06:22:38;6.90;;;4.50;;
6537;SDS011;3302;52.508;13.454;2023-01-28T06:25:04;7.23;;;4.97;;
6537;SDS011;3302;52.508;13.454;2023-01-28T06:27:31;7.27;;;4.80;;
6537;SDS011;3302;52.508;13.454;2023-01-28T06:29:56;7.20;;;4.63;;
6537;SDS011;3302;52.508;13.454;2023-01-28T06:32:22;6.57;;;4.40;;
6537;SDS011;3302;52.508;13.454;2023-01-28T06:34:48;7.00;;;4.47;;
6537;SDS011;3302;52.508;13.454;2023-01-28T06:37:14;6.67;;;4.30;;
6537;SDS011;3302;52.508;13.454;2023-01-28T06:39:40;6.03;;;3.90;;
6537;SDS011;3302;52.508;13.454;2023-01-28T06:42:05;7.43;;;4.73;;
6537;SDS011;3302;52.508;13.454;2023-01-28T06:44:31;7.77;;;4.73;;
6537;SDS011;3302;52.508;13.454;2023-01-28T06:46:57;7.97;;;4.97;;
6537;SDS011;3302;52.508;13.454;2023-01-28T06:49:23;6.47;;;4.50;;
6537;SDS011;3302;52.508;13.454;2023-01-28T06:51:49;5.97;;;4.20;;
6537;SDS011;3302;52.508;13.454;2023-01-28T06:54:14;6.57;;;4.10;;
6537;SDS011;3302;52.508;13.454;2023-01-28T06:56:40;5.53;;;4.17;;
6537;SDS011;3302;52.508;13.454;2023-01-28T06:59:07;5.80;;;4.30;;
6537;SDS011;3302;52.508;13.454;2023-01-28T07:01:32;6.20;;;4.50;;
6537;SDS011;3302;52.508;13.454;2023-01-28T07:03:58;5.80;;;4.20;;
6537;SDS011;3302;52.508;13.454;2023-01-28T07:06:24;7.07;;;4.70;;
6537;SDS011;3302;52.508;13.454;2023-01-28T07:08:50;8.73;;;4.70;;
6537;SDS011;3302;52.508;13.454;2023-01-28T07:11:15;7.63;;;4.87;;
6537;SDS011;3302;52.508;13.454;2023-01-28T07:13:41;9.03;;;5.50;;
6537;SDS011;3302;52.508;13.454;2023-01-28T07:16:07;8.00;;;4.53;;
6537;SDS011;3302;52.508;13.454;2023-01-28T07:18:33;8.00;;;5.20;;
6537;SDS011;3302;52.508;13.454;2023-01-28T07:20:59;8.53;;;5.53;;
6537;SDS011;3302;52.508;13.454;2023-01-28T07:23:25;8.07;;;5.23;;
6537;SDS011;3302;52.508;13.454;2023-01-28T07:25:51;8.37;;;5.53;;
6537;SDS011;3302;52.508;13.454;2023-01-28T07:28:17;9.83;;;5.57;;
6537;SDS011;3302;52.508;13.454;2023-01-28T07:30:54;8.10;;;5.03;;
6537;SDS011;3302;52.508;13.454;2023-01-28T07:33:20;7.87;;;5.13;;
6537;SDS011;3302;52.508;13.454;2023-01-28T07:35:46;9.20;;;5.10;;
6537;SDS011;3302;52.508;13.454;2023-01-28T07:38:13;8.53;;;4.93;;
6537;SDS011;3302;52.508;13.454;2023-01-28T07:40:39;6.67;;;4.63;;
6537;SDS011;3302;52.508;13.454;2023-01-28T07:43:09;5.87;;;4.40;;
6537;SDS011;3302;52.508;13.454;2023-01-28T07:45:35;4.63;;;3.20;;
6537;SDS011;3302;52.508;13.454;2023-01-28T07:48:02;4.73;;;3.63;;
6537;SDS011;3302;52.508;13.454;2023-01-28T07:50:31;4.43;;;2.70;;
6537;SDS011;3302;52.508;13.454;2023-01-28T07:53:00;4.73;;;3.00;;
6537;SDS011;3302;52.508;13.454;2023-01-28T07:55:27;6.43;;;3.43;;
6537;SDS011;3302;52.508;13.454;2023-01-28T07:57:55;6.30;;;3.20;;
6537;SDS011;3302;52.508;13.454;2023-01-28T08:00:23;4.43;;;3.30;;
6537;SDS011;3302;52.508;13.454;2023-01-28T08:02:53;4.67;;;3.20;;
6537;SDS011;3302;52.508;13.454;2023-01-28T08:05:21;6.23;;;3.40;;
6537;SDS011;3302;52.508;13.454;2023-01-28T08:07:47;9.10;;;4.00;;
6537;SDS011;3302;52.508;13.454;2023-01-28T08:10:14;6.07;;;3.90;;
6537;SDS011;3302;52.508;13.454;2023-01-28T08:12:49;5.13;;;3.60;;
6537;SDS011;3302;52.508;13.454;2023-01-28T08:15:16;6.87;;;4.40;;
6537;SDS011;3302;52.508;13.454;2023-01-28T08:17:42;7.30;;;4.13;;
6537;SDS011;3302;52.508;13.454;2023-01-28T08:20:08;5.93;;;3.93;;
6537;SDS011;3302;52.508;13.454;2023-01-28T08:22:34;21.43;;;10.50;;
6537;SDS011;3302;52.508;13.454;2023-01-28T08:25:00;6.67;;;4.30;;
6537;SDS011;3302;52.508;13.454;2023-01-28T08:27:25;7.73;;;5.10;;
6537;SDS011;3302;52.508;13.454;2023-01-28T08:29:51;16.03;;;7.93;;
6537;SDS011;3302;52.508;13.454;2023-01-28T08:32:17;9.20;;;5.67;;
6537;SDS011;3302;52.508;13.454;2023-01-28T08:34:43;9.00;;;5.13;;
6537;SDS011;3302;52.508;13.454;2023-01-28T08:37:08;9.00;;;4.80;;
6537;SDS011;3302;52.508;13.454;2023-01-28T08:39:34;6.83;;;4.03;;
6537;SDS011;3302;52.508;13.454;2023-01-28T08:42:00;7.47;;;4.30;;
6537;SDS011;3302;52.508;13.454;2023-01-28T08:44:26;8.47;;;4.90;;
6537;SDS011;3302;52.508;13.454;2023-01-28T08:46:52;5.90;;;3.30;;
6537;SDS011;3302;52.508;13.454;2023-01-28T08:49:17;5.63;;;3.77;;
6537;SDS011;3302;52.508;13.454;2023-01-28T08:51:43;5.30;;;3.83;;
6537;SDS011;3302;52.508;13.454;2023-01-28T08:54:09;5.47;;;3.73;;
6537;SDS011;3302;52.508;13.454;2023-01-28T08:56:34;8.67;;;3.10;;
6537;SDS011;3302;52.508;13.454;2023-01-28T08:59:00;9.33;;;5.80;;
6537;SDS011;3302;52.508;13.454;2023-01-28T09:01:26;10.30;;;5.57;;
6537;SDS011;3302;52.508;13.454;2023-01-28T09:03:53;7.13;;;5.10;;
6537;SDS011;3302;52.508;13.454;2023-01-28T09:06:20;5.40;;;3.47;;
6537;SDS011;3302;52.508;13.454;2023-01-28T09:08:45;3.10;;;2.23;;
6537;SDS011;3302;52.508;13.454;2023-01-28T09:11:11;5.20;;;2.50;;
6537;SDS011;3302;52.508;13.454;2023-01-28T09:13:37;3.87;;;2.27;;
6537;SDS011;3302;52.508;13.454;2023-01-28T09:16:03;3.73;;;2.10;;
6537;SDS011;3302;52.508;13.454;2023-01-28T09:18:30;4.67;;;2.60;;
6537;SDS011;3302;52.508;13.454;2023-01-28T09:20:56;2.50;;;1.70;;
6537;SDS011;3302;52.508;13.454;2023-01-28T09:23:22;3.30;;;2.10;;
6537;SDS011;3302;52.508;13.454;2023-01-28T09:25:48;4.43;;;2.33;;
6537;SDS011;3302;52.508;13.454;2023-01-28T09:28:13;3.00;;;2.10;;
6537;SDS011;3302;52.508;13.454;2023-01-28T09:30:39;4.00;;;1.73;;
6537;SDS011;3302;52.508;13.454;2023-01-28T09:33:05;4.03;;;2.03;;
6537;SDS011;3302;52.508;13.454;2023-01-28T09:35:32;3.00;;;1.40;;
6537;SDS011;3302;52.508;13.454;2023-01-28T09:37:58;2.10;;;1.50;;
6537;SDS011;3302;52.508;13.454;2023-01-28T09:45:50;3.07;;;1.70;;
6537;SDS011;3302;52.508;13.454;2023-01-28T09:48:20;3.07;;;1.43;;
6537;SDS011;3302;52.508;13.454;2023-01-28T09:50:50;2.53;;;1.60;;
6537;SDS011;3302;52.508;13.454;2023-01-28T09:53:20;4.13;;;1.70;;
6537;SDS011;3302;52.508;13.454;2023-01-28T09:56:05;1.60;;;1.40;;
6537;SDS011;3302;52.508;13.454;2023-01-28T09:58:37;1.43;;;1.00;;
6537;SDS011;3302;52.508;13.454;2023-01-28T10:11:52;2.53;;;1.27;;
6537;SDS011;3302;52.508;13.454;2023-01-28T10:14:42;2.77;;;1.70;;
6537;SDS011;3302;52.508;13.454;2023-01-28T10:17:44;4.23;;;1.43;;
6537;SDS011;3302;52.508;13.454;2023-01-28T10:20:26;3.63;;;2.00;;
6537;SDS011;3302;52.508;13.454;2023-01-28T10:25:32;3.27;;;1.70;;
6537;SDS011;3302;52.508;13.454;2023-01-28T10:28:00;2.40;;;1.30;;
6537;SDS011;3302;52.508;13.454;2023-01-28T10:30:28;1.60;;;0.93;;
6537;SDS011;3302;52.508;13.454;2023-01-28T10:33:04;2.93;;;1.90;;
6537;SDS011;3302;52.508;13.454;2023-01-28T10:35:50;3.83;;;2.00;;
6537;SDS011;3302;52.508;13.454;2023-01-28T10:38:19;2.30;;;2.03;;
6537;SDS011;3302;52.508;13.454;2023-01-28T10:40:46;2.27;;;1.60;;
6537;SDS011;3302;52.508;13.454;2023-01-28T10:43:15;5.27;;;1.60;;
6537;SDS011;3302;52.508;13.454;2023-01-28T10:50:59;4.90;;;1.30;;
6537;SDS011;3302;52.508;13.454;2023-01-28T10:53:33;7.87;;;3.67;;
6537;SDS011;3302;52.508;13.454;2023-01-28T10:55:59;3.07;;;1.77;;
6537;SDS011;3302;52.508;13.454;2023-01-28T10:58:27;3.30;;;1.70;;
6537;SDS011;3302;52.508;13.454;2023-01-28T11:00:56;3.20;;;1.13;;
6537;SDS011;3302;52.508;13.454;2023-01-28T11:03:24;2.50;;;1.40;;
6537;SDS011;3302;52.508;13.454;2023-01-28T11:05:55;3.47;;;1.27;;
6537;SDS011;3302;52.508;13.454;2023-01-28T11:08:23;5.83;;;2.20;;
6537;SDS011;3302;52.508;13.454;2023-01-28T11:10:50;1.83;;;1.27;;
6537;SDS011;3302;52.508;13.454;2023-01-28T11:13:22;3.00;;;1.00;;
6537;SDS011;3302;52.508;13.454;2023-01-28T11:15:53;2.33;;;1.23;;
6537;SDS011;3302;52.508;13.454;2023-01-28T11:18:28;2.23;;;1.20;;
6537;SDS011;3302;52.508;13.454;2023-01-28T11:20:59;3.20;;;1.57;;
6537;SDS011;3302;52.508;13.454;2023-01-28T11:23:31;2.47;;;1.37;;
6537;SDS011;3302;52.508;13.454;2023-01-28T11:26:06;2.97;;;1.40;;
6537;SDS011;3302;52.508;13.454;2023-01-28T11:28:39;3.47;;;1.30;;
6537;SDS011;3302;52.508;13.454;2023-01-28T11:31:07;4.13;;;1.40;;
6537;SDS011;3302;52.508;13.454;2023-01-28T11:33:40;6.53;;;2.07;;
6537;SDS011;3302;52.508;13.454;2023-01-28T11:36:19;1.63;;;1.00;;
6537;SDS011;3302;52.508;13.454;2023-01-28T11:38:48;1.93;;;1.37;;
6537;SDS011;3302;52.508;13.454;2023-01-28T11:41:16;2.73;;;1.57;;
6537;SDS011;3302;52.508;13.454;2023-01-28T11:43:42;2.77;;;1.00;;
6537;SDS011;3302;52.508;13.454;2023-01-28T12:03:02;2.33;;;1.10;;
6537;SDS011;3302;52.508;13.454;2023-01-28T12:05:45;1.60;;;1.10;;
6537;SDS011;3302;52.508;13.454;2023-01-28T12:33:26;2.47;;;1.20;;
6537;SDS011;3302;52.508;13.454;2023-01-28T12:35:41;3.13;;;1.30;;
6537;SDS011;3302;52.508;13.454;2023-01-28T12:41:27;3.93;;;1.60;;
6537;SDS011;3302;52.508;13.454;2023-01-28T12:49:07;2.80;;;1.60;;
6537;SDS011;3302;52.508;13.454;2023-01-28T12:54:38;2.83;;;1.90;;
6537;SDS011;3302;52.508;13.454;2023-01-28T12:57:15;2.10;;;1.40;;
6537;SDS011;3302;52.508;13.454;2023-01-28T12:59:48;3.53;;;1.53;;
6537;SDS011;3302;52.508;13.454;2023-01-28T13:02:25;2.50;;;1.50;;
6537;SDS011;3302;52.508;13.454;2023-01-28T13:13:03;2.80;;;1.60;;
6537;SDS011;3302;52.508;13.454;2023-01-28T13:15:29;5.57;;;1.80;;
6537;SDS011;3302;52.508;13.454;2023-01-28T13:18:00;3.73;;;1.90;;
6537;SDS011;3302;52.508;13.454;2023-01-28T13:20:47;5.93;;;2.50;;
6537;SDS011;3302;52.508;13.454;2023-01-28T13:26:07;3.87;;;2.07;;
6537;SDS011;3302;52.508;13.454;2023-01-28T13:28:43;5.33;;;1.70;;
6537;SDS011;3302;52.508;13.454;2023-01-28T13:31:11;1.73;;;1.10;;
6537;SDS011;3302;52.508;13.454;2023-01-28T13:33:42;2.67;;;1.30;;
6537;SDS011;3302;52.508;13.454;2023-01-28T13:38:47;1.93;;;1.20;;
6537;SDS011;3302;52.508;13.454;2023-01-28T13:41:24;2.53;;;1.17;;
6537;SDS011;3302;52.508;13.454;2023-01-28T13:44:01;1.47;;;1.17;;
6537;SDS011;3302;52.508;13.454;2023-01-28T13:46:28;2.63;;;1.30;;
6537;SDS011;3302;52.508;13.454;2023-01-28T13:48:56;1.77;;;1.30;;
6537;SDS011;3302;52.508;13.454;2023-01-28T13:51:25;2.83;;;1.50;;
6537;SDS011;3302;52.508;13.454;2023-01-28T13:54:04;2.43;;;1.60;;
6537;SDS011;3302;52.508;13.454;2023-01-28T13:57:01;4.20;;;1.17;;
6537;SDS011;3302;52.508;13.454;2023-01-28T14:18:44;3.00;;;2.10;;
6537;SDS011;3302;52.508;13.454;2023-01-28T14:21:12;1.97;;;1.60;;
6537;SDS011;3302;52.508;13.454;2023-01-28T14:23:47;3.33;;;1.57;;
6537;SDS011;3302;52.508;13.454;2023-01-28T14:31:40;3.00;;;1.70;;
6537;SDS011;3302;52.508;13.454;2023-01-28T14:34:11;2.40;;;1.60;;
6537;SDS011;3302;52.508;13.454;2023-01-28T14:36:47;3.23;;;1.50;;
6537;SDS011;3302;52.508;13.454;2023-01-28T14:39:29;4.07;;;1.83;;
6537;SDS011;3302;52.508;13.454;2023-01-28T14:41:59;2.50;;;1.60;;
6537;SDS011;3302;52.508;13.454;2023-01-28T14:44:27;1.70;;;1.30;;
6537;SDS011;3302;52.508;13.454;2023-01-28T14:52:48;3.00;;;1.50;;
6537;SDS011;3302;52.508;13.454;2023-01-28T14:55:42;2.20;;;2.00;;
6537;SDS011;3302;52.508;13.454;2023-01-28T14:58:37;2.40;;;1.50;;
6537;SDS011;3302;52.508;13.454;2023-01-28T15:01:16;1.63;;;1.00;;
6537;SDS011;3302;52.508;13.454;2023-01-28T15:03:49;2.50;;;1.17;;
6537;SDS011;3302;52.508;13.454;2023-01-28T15:06:16;2.20;;;1.47;;
6537;SDS011;3302;52.508;13.454;2023-01-28T15:08:45;5.00;;;3.03;;
6537;SDS011;3302;52.508;13.454;2023-01-28T15:11:19;2.63;;;1.40;;
6537;SDS011;3302;52.508;13.454;2023-01-28T15:13:50;2.90;;;1.60;;
6537;SDS011;3302;52.508;13.454;2023-01-28T15:16:20;2.37;;;1.47;;
6537;SDS011;3302;52.508;13.454;2023-01-28T15:18:56;5.43;;;1.60;;
6537;SDS011;3302;52.508;13.454;2023-01-28T15:21:25;2.83;;;1.80;;
6537;SDS011;3302;52.508;13.454;2023-01-28T15:23:54;3.40;;;1.90;;
6537;SDS011;3302;52.508;13.454;2023-01-28T15:26:23;3.93;;;1.80;;
6537;SDS011;3302;52.508;13.454;2023-01-28T15:28:57;5.17;;;1.80;;
6537;SDS011;3302;52.508;13.454;2023-01-28T15:31:24;3.23;;;1.47;;
6537;SDS011;3302;52.508;13.454;2023-01-28T15:33:56;2.57;;;1.40;;
6537;SDS011;3302;52.508;13.454;2023-01-28T15:36:27;2.40;;;1.80;;
6537;SDS011;3302;52.508;13.454;2023-01-28T15:38:53;1.70;;;1.50;;
6537;SDS011;3302;52.508;13.454;2023-01-28T15:41:21;1.90;;;1.50;;
6537;SDS011;3302;52.508;13.454;2023-01-28T15:43:53;1.87;;;1.27;;
6537;SDS011;3302;52.508;13.454;2023-01-28T15:46:18;3.30;;;1.93;;
6537;SDS011;3302;52.508;13.454;2023-01-28T15:48:47;2.00;;;1.40;;
6537;SDS011;3302;52.508;13.454;2023-01-28T15:51:22;4.10;;;3.13;;
6537;SDS011;3302;52.508;13.454;2023-01-28T15:54:05;3.57;;;1.80;;
6537;SDS011;3302;52.508;13.454;2023-01-28T15:56:33;1.80;;;1.13;;
6537;SDS011;3302;52.508;13.454;2023-01-28T16:04:59;3.13;;;2.10;;
6537;SDS011;3302;52.508;13.454;2023-01-28T16:07:28;3.27;;;2.90;;
6537;SDS011;3302;52.508;13.454;2023-01-28T16:09:57;2.63;;;2.00;;
6537;SDS011;3302;52.508;13.454;2023-01-28T16:12:24;3.03;;;1.73;;
6537;SDS011;3302;52.508;13.454;2023-01-28T16:14:53;4.17;;;2.53;;
6537;SDS011;3302;52.508;13.454;2023-01-28T16:17:26;1.93;;;1.37;;
6537;SDS011;3302;52.508;13.454;2023-01-28T16:20:03;3.07;;;1.70;;
6537;SDS011;3302;52.508;13.454;2023-01-28T16:22:43;2.90;;;1.60;;
6537;SDS011;3302;52.508;13.454;2023-01-28T16:27:59;2.70;;;1.90;;
6537;SDS011;3302;52.508;13.454;2023-01-28T16:30:26;3.67;;;2.10;;
6537;SDS011;3302;52.508;13.454;2023-01-28T16:32:52;3.13;;;1.83;;
6537;SDS011;3302;52.508;13.454;2023-01-28T16:35:26;4.27;;;1.80;;
6537;SDS011;3302;52.508;13.454;2023-01-28T16:37:53;3.37;;;2.10;;
6537;SDS011;3302;52.508;13.454;2023-01-28T16:40:20;3.17;;;2.60;;
6537;SDS011;3302;52.508;13.454;2023-01-28T16:42:47;5.13;;;2.23;;
6537;SDS011;3302;52.508;13.454;2023-01-28T16:45:17;2.87;;;1.70;;
6537;SDS011;3302;52.508;13.454;2023-01-28T16:47:45;2.50;;;1.83;;
6537;SDS011;3302;52.508;13.454;2023-01-28T16:50:11;2.10;;;1.60;;
6537;SDS011;3302;52.508;13.454;2023-01-28T16:52:39;3.53;;;2.47;;
6537;SDS011;3302;52.508;13.454;2023-01-28T16:55:08;4.83;;;2.70;;
6537;SDS011;3302;52.508;13.454;2023-01-28T16:57:39;2.90;;;1.73;;
6537;SDS011;3302;52.508;13.454;2023-01-28T17:00:06;3.33;;;2.07;;
6537;SDS011;3302;52.508;13.454;2023-01-28T17:02:40;2.27;;;1.40;;
6537;SDS011;3302;52.508;13.454;2023-01-28T17:05:06;3.57;;;2.03;;
6537;SDS011;3302;52.508;13.454;2023-01-28T17:07:32;2.50;;;2.30;;
6537;SDS011;3302;52.508;13.454;2023-01-28T17:09:58;2.67;;;2.00;;
6537;SDS011;3302;52.508;13.454;2023-01-28T17:12:24;3.03;;;2.10;;
6537;SDS011;3302;52.508;13.454;2023-01-28T17:14:50;2.03;;;1.50;;
6537;SDS011;3302;52.508;13.454;2023-01-28T17:17:16;3.17;;;1.40;;
6537;SDS011;3302;52.508;13.454;2023-01-28T17:19:42;2.97;;;1.80;;
6537;SDS011;3302;52.508;13.454;2023-01-28T17:22:07;2.50;;;1.50;;
6537;SDS011;3302;52.508;13.454;2023-01-28T17:24:33;3.50;;;1.90;;
6537;SDS011;3302;52.508;13.454;2023-01-28T17:26:59;2.50;;;1.70;;
6537;SDS011;3302;52.508;13.454;2023-01-28T17:29:25;2.33;;;1.43;;
6537;SDS011;3302;52.508;13.454;2023-01-28T17:31:51;2.63;;;1.70;;
6537;SDS011;3302;52.508;13.454;2023-01-28T17:34:16;2.73;;;1.87;;
6537;SDS011;3302;52.508;13.454;2023-01-28T17:36:42;4.20;;;1.90;;
6537;SDS011;3302;52.508;13.454;2023-01-28T17:39:08;4.33;;;2.20;;
6537;SDS011;3302;52.508;13.454;2023-01-28T17:41:34;4.83;;;2.27;;
6537;SDS011;3302;52.508;13.454;2023-01-28T17:44:00;4.53;;;2.00;;
6537;SDS011;3302;52.508;13.454;2023-01-28T17:46:25;2.53;;;1.73;;